createdAt,value
2023-04-24T00:01:35.109Z,2.30
2023-04-24T00:04:04.645Z,2.00
2023-04-24T00:06:34.247Z,2.37
2023-04-24T00:09:02.369Z,2.60
2023-04-24T00:11:30.361Z,2.13
2023-04-24T00:13:58.433Z,2.20
2023-04-24T00:16:27.584Z,1.97
2023-04-24T00:18:55.615Z,2.47
2023-04-24T00:21:26.681Z,2.17
2023-04-24T00:23:55.067Z,2.23
2023-04-24T00:26:22.803Z,2.40
2023-04-24T00:28:50.738Z,2.00
2023-04-24T00:31:18.512Z,2.30
2023-04-24T00:33:47.643Z,1.80
2023-04-24T00:36:15.395Z,2.20
2023-04-24T00:38:43.176Z,2.20
2023-04-24T00:41:11.015Z,2.07
2023-04-24T00:43:39.121Z,2.47
2023-04-24T00:46:07.101Z,2.07
2023-04-24T00:48:35.348Z,2.23
2023-04-24T00:51:04.590Z,2.20
2023-04-24T00:53:32.346Z,2.10
2023-04-24T00:56:00.437Z,1.97
2023-04-24T00:58:28.598Z,2.50
2023-04-24T01:00:58.529Z,1.97
2023-04-24T01:03:30.987Z,1.83
2023-04-24T01:05:59.411Z,2.07
2023-04-24T01:08:30.633Z,1.43
2023-04-24T01:10:59.517Z,1.73
2023-04-24T01:13:27.939Z,2.00
2023-04-24T01:15:55.800Z,1.70
2023-04-24T01:18:23.634Z,1.90
2023-04-24T01:20:54.988Z,1.70
2023-04-24T01:23:24.398Z,1.70
2023-04-24T01:25:52.524Z,2.00
2023-04-24T01:28:20.456Z,1.67
2023-04-24T01:30:48.318Z,1.77
2023-04-24T01:33:16.319Z,1.57
2023-04-24T01:35:44.642Z,1.70
2023-04-24T01:38:12.547Z,1.60
2023-04-24T01:40:41.821Z,1.77
2023-04-24T01:43:09.799Z,1.70
2023-04-24T01:45:37.536Z,1.60
2023-04-24T01:48:05.315Z,1.50
2023-04-24T01:50:33.450Z,1.20
2023-04-24T01:53:01.147Z,1.40
2023-04-24T01:55:29.560Z,1.40
2023-04-24T01:57:59.486Z,1.20
2023-04-24T02:00:27.392Z,1.03
2023-04-24T02:02:55.233Z,1.27
2023-04-24T02:05:23.389Z,1.20
2023-04-24T02:07:51.320Z,1.10
2023-04-24T02:10:19.444Z,1.20
2023-04-24T02:12:47.185Z,1.20
2023-04-24T02:15:16.415Z,1.10
2023-04-24T02:17:44.229Z,1.37
2023-04-24T02:20:12.469Z,1.40
2023-04-24T02:22:40.343Z,1.40
2023-04-24T02:25:08.953Z,1.10
2023-04-24T02:27:36.781Z,1.50
2023-04-24T02:30:04.905Z,1.10
2023-04-24T02:32:34.989Z,1.13
2023-04-24T02:35:03.682Z,1.00
2023-04-24T02:37:31.493Z,1.30
2023-04-24T02:39:59.254Z,1.13
2023-04-24T02:42:26.997Z,1.00
2023-04-24T02:44:54.736Z,1.30
2023-04-24T02:47:22.487Z,1.00
2023-04-24T02:49:51.577Z,1.30
2023-04-24T02:52:19.395Z,0.90
2023-04-24T02:54:47.238Z,0.77
2023-04-24T02:57:14.977Z,1.20
2023-04-24T02:59:43.014Z,0.90
2023-04-24T03:02:11.280Z,1.17
2023-04-24T03:04:41.106Z,0.83
2023-04-24T03:07:10.311Z,1.00
2023-04-24T03:09:41.140Z,0.80
2023-04-24T03:12:09.155Z,0.90
2023-04-24T03:14:36.833Z,1.07
2023-04-24T03:17:04.604Z,0.83
2023-04-24T03:19:32.321Z,0.80
2023-04-24T03:22:00.402Z,0.90
2023-04-24T03:24:29.817Z,1.00
2023-04-24T03:26:58.064Z,0.50
2023-04-24T03:29:26.026Z,0.63
2023-04-24T03:31:53.821Z,0.63
2023-04-24T03:34:21.632Z,0.70
2023-04-24T03:36:49.449Z,0.90
2023-04-24T03:39:17.403Z,0.57
2023-04-24T03:41:46.556Z,0.80
2023-04-24T03:44:14.378Z,0.60
2023-04-24T03:46:42.217Z,0.70
2023-04-24T03:49:10.022Z,0.70
2023-04-24T03:51:37.913Z,0.90
2023-04-24T03:54:05.865Z,0.73
2023-04-24T03:56:33.602Z,0.77
2023-04-24T03:59:03.426Z,0.80
2023-04-24T04:01:31.767Z,0.60
2023-04-24T04:03:59.679Z,0.87
2023-04-24T04:06:27.944Z,0.70
2023-04-24T04:08:55.660Z,0.77
2023-04-24T04:11:23.387Z,0.70
2023-04-24T04:13:51.129Z,0.83
2023-04-24T04:16:20.486Z,0.50
2023-04-24T04:18:48.337Z,0.73
2023-04-24T04:21:16.138Z,0.50
2023-04-24T04:23:43.895Z,0.50
2023-04-24T04:26:13.567Z,0.70
2023-04-24T04:28:42.062Z,0.40
2023-04-24T04:31:10.517Z,0.40
2023-04-24T04:33:40.450Z,0.50
2023-04-24T04:36:08.886Z,0.60
2023-04-24T04:38:38.103Z,0.57
2023-04-24T04:41:06.484Z,0.80
2023-04-24T04:43:35.115Z,0.40
2023-04-24T04:46:04.703Z,0.70
2023-04-24T04:48:33.448Z,0.50
2023-04-24T04:51:02.526Z,0.73
2023-04-24T04:53:30.355Z,0.50
2023-04-24T04:55:58.107Z,0.70
2023-04-24T04:58:26.243Z,0.60
2023-04-24T05:00:54.080Z,0.60
2023-04-24T05:03:22.042Z,0.60
2023-04-24T05:05:50.346Z,0.70
2023-04-24T05:08:27.118Z,0.80
2023-04-24T05:10:56.309Z,0.70
2023-04-24T05:13:35.636Z,0.60
2023-04-24T05:16:07.443Z,0.43
2023-04-24T05:18:35.262Z,0.73
2023-04-24T05:21:03.238Z,0.67
2023-04-24T05:23:32.449Z,0.43
2023-04-24T05:26:00.284Z,0.53
2023-04-24T05:28:29.254Z,0.40
2023-04-24T05:30:57.770Z,0.40
2023-04-24T05:33:25.623Z,0.30
2023-04-24T05:35:53.351Z,0.20
2023-04-24T05:38:21.296Z,0.50
2023-04-24T05:40:50.490Z,0.50
2023-04-24T05:43:18.301Z,0.53
2023-04-24T05:45:46.020Z,0.70
2023-04-24T05:48:13.740Z,0.47
2023-04-24T05:50:41.866Z,0.43
2023-04-24T05:53:11.575Z,0.67
2023-04-24T05:55:39.495Z,0.50
2023-04-24T05:58:08.536Z,0.50
2023-04-24T06:00:37.176Z,0.80
2023-04-24T06:03:05.268Z,0.70
2023-04-24T06:05:33.326Z,0.70
2023-04-24T06:08:01.411Z,0.50
2023-04-24T06:10:29.286Z,0.67
2023-04-24T06:13:01.133Z,0.90
2023-04-24T06:15:32.411Z,0.60
2023-04-24T06:18:00.489Z,0.60
2023-04-24T06:20:28.739Z,1.00
2023-04-24T06:22:56.573Z,0.80
2023-04-24T06:25:26.709Z,0.80
2023-04-24T06:27:54.541Z,0.60
2023-04-24T06:30:22.358Z,0.93
2023-04-24T06:32:51.498Z,1.10
2023-04-24T06:35:19.579Z,0.60
2023-04-24T06:37:48.107Z,0.70
2023-04-24T06:40:15.885Z,0.50
2023-04-24T06:42:43.758Z,0.70
2023-04-24T06:45:12.319Z,0.87
2023-04-24T06:47:40.311Z,0.70
2023-04-24T06:50:10.654Z,0.60
2023-04-24T06:52:38.361Z,1.30
2023-04-24T06:55:07.062Z,0.90
2023-04-24T06:57:34.804Z,0.90
2023-04-24T07:00:02.575Z,0.87
2023-04-24T07:02:30.783Z,1.07
2023-04-24T07:04:58.613Z,0.97
2023-04-24T07:07:28.559Z,0.57
2023-04-24T07:09:57.309Z,1.13
2023-04-24T07:12:25.070Z,1.13
2023-04-24T07:14:52.882Z,1.43
2023-04-24T07:17:20.752Z,1.53
2023-04-24T07:19:48.513Z,1.13
2023-04-24T07:22:17.894Z,1.20
2023-04-24T07:24:47.114Z,1.33
2023-04-24T07:27:15.859Z,1.40
2023-04-24T07:29:44.173Z,1.70
2023-04-24T07:32:12.296Z,1.30
2023-04-24T07:34:40.029Z,2.30
2023-04-24T07:37:07.885Z,2.20
2023-04-24T07:39:35.641Z,1.80
2023-04-24T07:42:05.259Z,1.77
2023-04-24T07:44:33.140Z,1.97
2023-04-24T07:47:00.926Z,1.47
2023-04-24T07:49:28.846Z,1.70
2023-04-24T07:51:56.628Z,1.53
2023-04-24T07:54:26.627Z,1.97
2023-04-24T07:56:54.485Z,1.77
2023-04-24T07:59:23.729Z,1.73
2023-04-24T08:01:51.891Z,1.83
2023-04-24T08:04:20.597Z,1.87
2023-04-24T08:06:49.575Z,1.87
2023-04-24T08:09:17.396Z,1.77
2023-04-24T08:11:46.033Z,2.07
2023-04-24T08:14:14.309Z,1.80
2023-04-24T08:16:44.257Z,1.73
2023-04-24T08:19:12.261Z,1.50
2023-04-24T08:21:40.065Z,1.90
2023-04-24T08:24:09.019Z,2.00
2023-04-24T08:26:36.755Z,2.03
2023-04-24T08:29:04.677Z,1.80
2023-04-24T08:31:32.731Z,1.97
2023-04-24T08:34:02.018Z,2.37
2023-04-24T08:36:43.597Z,2.43
2023-04-24T08:39:15.269Z,2.07
2023-04-24T08:41:46.182Z,1.80
2023-04-24T08:44:16.551Z,2.03
2023-04-24T08:46:45.083Z,1.93
2023-04-24T08:49:17.138Z,1.77
2023-04-24T08:51:45.556Z,2.33
2023-04-24T08:54:14.859Z,2.37
2023-04-24T08:56:45.745Z,1.83
2023-04-24T08:59:13.826Z,2.00
2023-04-24T09:01:42.646Z,1.90
2023-04-24T09:04:13.365Z,1.90
2023-04-24T09:06:42.815Z,1.90
2023-04-24T09:09:12.543Z,2.00
2023-04-24T09:11:40.589Z,2.10
2023-04-24T09:14:09.710Z,1.90
2023-04-24T09:16:38.035Z,2.00
2023-04-24T09:19:05.807Z,2.27
2023-04-24T09:21:35.061Z,1.93
2023-04-24T09:24:06.067Z,2.10
2023-04-24T09:26:34.530Z,1.75
2023-04-24T09:29:02.643Z,2.03
2023-04-24T09:31:31.625Z,2.00
2023-04-24T09:34:02.878Z,1.90
2023-04-24T09:36:34.031Z,2.00
2023-04-24T09:39:05.375Z,1.90
2023-04-24T09:41:34.745Z,2.27
2023-04-24T09:44:14.636Z,2.00
2023-04-24T09:46:43.625Z,2.30
2023-04-24T09:49:12.774Z,2.27
2023-04-24T09:51:40.797Z,2.13
2023-04-24T09:54:18.070Z,2.07
2023-04-24T09:56:47.324Z,2.30
2023-04-24T09:59:16.023Z,2.53
2023-04-24T10:01:45.504Z,1.93
2023-04-24T10:04:21.255Z,2.57
2023-04-24T10:06:51.133Z,2.90
2023-04-24T10:09:21.966Z,2.50
2023-04-24T10:11:52.154Z,2.87
2023-04-24T10:14:21.771Z,3.30
2023-04-24T10:16:50.760Z,3.53
2023-04-24T10:19:20.914Z,3.27
2023-04-24T10:21:49.123Z,3.10
2023-04-24T10:24:18.340Z,3.07
2023-04-24T10:26:49.228Z,3.17
2023-04-24T10:29:18.758Z,3.00
2023-04-24T10:31:47.852Z,3.30
2023-04-24T10:34:18.099Z,3.53
2023-04-24T10:36:51.698Z,3.27
2023-04-24T10:39:20.544Z,3.20
2023-04-24T10:41:58.387Z,3.42
2023-04-24T10:44:27.653Z,2.87
2023-04-24T10:46:57.585Z,3.00
2023-04-24T10:49:30.950Z,2.97
2023-04-24T10:52:04.995Z,3.43
2023-04-24T10:54:38.199Z,2.77
2023-04-24T10:57:31.675Z,2.97
2023-04-24T11:00:17.184Z,3.00
2023-04-24T11:02:50.345Z,3.90
2023-04-24T11:05:19.669Z,3.00
2023-04-24T11:08:12.718Z,2.83
2023-04-24T11:10:42.016Z,3.03
2023-04-24T11:13:12.729Z,3.43
2023-04-24T11:15:43.580Z,3.10
2023-04-24T11:18:16.011Z,3.40
2023-04-24T11:20:48.648Z,3.10
2023-04-24T11:23:19.480Z,2.80
2023-04-24T11:25:47.897Z,2.88
2023-04-24T11:28:18.533Z,3.23
2023-04-24T11:30:46.273Z,2.72
2023-04-24T11:33:21.691Z,3.58
2023-04-24T11:35:49.617Z,3.10
2023-04-24T11:38:24.607Z,3.38
2023-04-24T11:40:53.896Z,2.87
2023-04-24T11:43:26.406Z,2.73
2023-04-24T11:45:55.121Z,2.50
2023-04-24T11:48:24.090Z,2.93
2023-04-24T11:50:52.980Z,2.22
2023-04-24T11:53:22.466Z,3.03
2023-04-24T11:55:50.457Z,2.70
2023-04-24T11:58:24.207Z,2.33
2023-04-24T12:00:58.898Z,2.77
2023-04-24T12:03:27.072Z,2.70
2023-04-24T12:06:06.115Z,2.83
2023-04-24T12:08:34.894Z,2.10
2023-04-24T12:11:03.827Z,2.63
2023-04-24T12:13:33.061Z,2.27
2023-04-24T12:16:00.909Z,2.23
2023-04-24T12:18:28.645Z,2.28
2023-04-24T12:21:01.218Z,2.57
2023-04-24T12:23:38.354Z,2.40
2023-04-24T12:26:06.653Z,2.28
2023-04-24T12:28:39.198Z,2.55
2023-04-24T12:31:08.888Z,2.40
2023-04-24T12:33:37.732Z,2.40
2023-04-24T12:36:06.372Z,2.30
2023-04-24T12:38:41.067Z,2.30
2023-04-24T12:41:11.132Z,2.30
2023-04-24T12:43:40.761Z,2.33
2023-04-24T12:46:08.611Z,2.57
2023-04-24T12:48:36.472Z,2.37
2023-04-24T12:51:04.454Z,2.03
2023-04-24T12:53:32.472Z,1.80
2023-04-24T12:56:00.236Z,2.13
2023-04-24T12:58:27.998Z,2.30
2023-04-24T13:00:57.185Z,1.53
2023-04-24T13:03:25.153Z,1.60
2023-04-24T13:05:53.084Z,1.60
2023-04-24T13:08:20.976Z,1.73
2023-04-24T13:10:48.734Z,1.93
2023-04-24T13:13:17.012Z,1.60
2023-04-24T13:15:44.700Z,1.73
2023-04-24T13:18:13.767Z,1.63
2023-04-24T13:20:42.429Z,1.60
2023-04-24T13:23:10.184Z,1.90
2023-04-24T13:25:39.919Z,1.73
2023-04-24T13:28:07.645Z,1.70
2023-04-24T13:30:35.472Z,1.70
2023-04-24T13:33:03.802Z,1.73
2023-04-24T13:35:32.992Z,2.37
2023-04-24T13:38:02.114Z,1.80
2023-04-24T13:40:29.949Z,1.30
2023-04-24T13:42:57.971Z,1.80
2023-04-24T13:45:25.983Z,1.77
2023-04-24T13:47:55.185Z,1.83
2023-04-24T13:50:23.376Z,1.97
2023-04-24T13:52:52.412Z,1.63
2023-04-24T13:55:20.365Z,1.73
2023-04-24T13:57:48.134Z,1.80
2023-04-24T14:00:16.699Z,1.63
2023-04-24T14:02:44.598Z,1.93
2023-04-24T14:05:12.861Z,1.47
2023-04-24T14:07:40.721Z,1.83
2023-04-24T14:10:11.156Z,1.83
2023-04-24T14:12:38.908Z,1.77
2023-04-24T14:15:07.703Z,1.87
2023-04-24T14:17:35.680Z,1.50
2023-04-24T14:20:04.376Z,1.70
2023-04-24T14:22:32.179Z,1.77
2023-04-24T14:24:59.965Z,1.20
2023-04-24T14:27:29.115Z,1.10
2023-04-24T14:29:56.937Z,1.60
2023-04-24T14:32:24.977Z,1.70
2023-04-24T14:34:52.754Z,2.17
2023-04-24T14:37:21.063Z,1.67
2023-04-24T14:39:55.818Z,1.67
2023-04-24T14:42:30.454Z,1.93
2023-04-24T14:44:58.390Z,2.30
2023-04-24T14:47:26.525Z,2.17
2023-04-24T14:49:54.367Z,1.90
2023-04-24T14:52:22.128Z,2.30
2023-04-24T14:54:49.837Z,1.87
2023-04-24T14:57:17.772Z,2.23
2023-04-24T14:59:46.777Z,2.00
2023-04-24T15:02:15.932Z,1.77
2023-04-24T15:04:44.710Z,1.50
2023-04-24T15:07:12.614Z,1.90
2023-04-24T15:09:40.745Z,1.57
2023-04-24T15:12:08.552Z,1.67
2023-04-24T15:14:36.448Z,1.63
2023-04-24T15:17:05.620Z,1.00
2023-04-24T15:19:33.561Z,0.67
2023-04-24T15:22:01.347Z,0.83
2023-04-24T15:24:29.307Z,0.90
2023-04-24T15:27:00.556Z,1.00
2023-04-24T15:29:29.137Z,0.83
2023-04-24T15:31:57.281Z,1.20
2023-04-24T15:34:26.444Z,1.30
2023-04-24T15:36:54.232Z,1.67
2023-04-24T15:39:25.167Z,1.60
2023-04-24T15:41:54.159Z,1.60
2023-04-24T15:44:22.499Z,1.97
2023-04-24T15:46:52.120Z,1.83
2023-04-24T15:49:20.192Z,1.90
2023-04-24T15:51:49.213Z,1.70
2023-04-24T15:54:16.986Z,1.67
2023-04-24T15:56:45.610Z,1.90
2023-04-24T15:59:13.417Z,1.83
2023-04-24T16:01:41.573Z,1.83
2023-04-24T16:04:09.733Z,1.90
2023-04-24T16:06:37.719Z,2.07
2023-04-24T16:09:08.537Z,2.00
2023-04-24T16:11:37.517Z,1.63
2023-04-24T16:14:05.362Z,2.20
2023-04-24T16:16:33.567Z,1.50
2023-04-24T16:19:01.869Z,1.70
2023-04-24T16:21:29.583Z,1.70
2023-04-24T16:23:57.317Z,1.80
2023-04-24T16:26:27.179Z,1.77
2023-04-24T16:28:55.855Z,2.13
2023-04-24T16:31:23.619Z,2.10
2023-04-24T16:33:51.670Z,1.60
2023-04-24T16:36:19.702Z,1.17
2023-04-24T16:38:49.564Z,1.40
2023-04-24T16:41:18.558Z,1.47
2023-04-24T16:43:47.616Z,2.10
2023-04-24T16:46:15.430Z,1.00
2023-04-24T16:48:43.199Z,1.00
2023-04-24T16:51:11.081Z,1.63
2023-04-24T16:53:39.101Z,1.33
2023-04-24T16:56:07.405Z,1.07
2023-04-24T16:58:35.253Z,0.90
2023-04-24T17:01:04.449Z,1.10
2023-04-24T17:03:35.372Z,1.20
2023-04-24T17:06:03.514Z,1.50
2023-04-24T17:09:34.484Z,0.93
2023-04-24T17:12:03.750Z,1.10
2023-04-24T17:14:42.401Z,1.40
2023-04-24T17:17:23.959Z,0.80
2023-04-24T17:20:30.563Z,1.20
2023-04-24T17:22:58.677Z,1.00
2023-04-24T17:25:26.513Z,0.97
2023-04-24T17:27:54.513Z,1.10
2023-04-24T17:30:22.609Z,1.40
2023-04-24T17:32:51.756Z,1.37
2023-04-24T17:35:20.926Z,1.30
2023-04-24T17:37:51.023Z,1.20
2023-04-24T17:40:19.002Z,1.40
2023-04-24T17:42:47.043Z,1.30
2023-04-24T17:45:15.130Z,1.30
2023-04-24T17:47:43.066Z,1.33
2023-04-24T17:50:12.936Z,1.60
2023-04-24T17:52:40.687Z,1.37
2023-04-24T17:55:09.174Z,1.60
2023-04-24T17:57:37.165Z,1.60
2023-04-24T18:00:08.207Z,1.30
2023-04-24T18:02:36.701Z,1.40
2023-04-24T18:05:04.872Z,1.73
2023-04-24T18:07:34.159Z,1.17
2023-04-24T18:10:02.243Z,1.33
2023-04-24T18:12:30.155Z,1.33
2023-04-24T18:15:13.159Z,1.50
2023-04-24T18:17:42.443Z,1.17
2023-04-24T18:20:12.008Z,1.00
2023-04-24T18:22:42.245Z,0.80
2023-04-24T18:25:11.377Z,0.73
2023-04-24T18:27:39.782Z,1.20
2023-04-24T18:30:13.525Z,1.10
2023-04-24T18:32:42.421Z,0.70
2023-04-24T18:35:11.254Z,1.00
2023-04-24T18:37:40.498Z,0.70
2023-04-24T18:40:11.345Z,0.60
2023-04-24T18:42:39.704Z,0.90
2023-04-24T18:45:08.442Z,0.80
2023-04-24T18:47:37.004Z,0.57
2023-04-24T18:50:06.779Z,0.80
2023-04-24T18:52:34.700Z,0.90
2023-04-24T18:55:03.852Z,0.80
2023-04-24T18:57:33.166Z,0.93
2023-04-24T19:00:00.956Z,1.10
2023-04-24T19:02:29.037Z,0.60
2023-04-24T19:04:56.907Z,0.67
2023-04-24T19:07:24.780Z,0.70
2023-04-24T19:09:53.129Z,0.53
2023-04-24T19:12:22.781Z,0.77
2023-04-24T19:14:55.674Z,0.43
2023-04-24T19:17:25.573Z,0.80
2023-04-24T19:19:53.810Z,1.10
2023-04-24T19:22:21.798Z,0.80
2023-04-24T19:24:49.582Z,1.10
2023-04-24T19:27:17.294Z,0.80
2023-04-24T19:29:45.109Z,0.80
2023-04-24T19:32:14.141Z,0.60
2023-04-24T19:34:41.904Z,1.00
2023-04-24T19:37:09.766Z,1.00
2023-04-24T19:39:37.526Z,1.00
2023-04-24T19:42:07.360Z,1.10
2023-04-24T19:44:35.442Z,1.27
2023-04-24T19:47:03.573Z,1.00
2023-04-24T19:49:33.084Z,1.20
2023-04-24T19:52:00.938Z,1.10
2023-04-24T19:54:29.101Z,1.30
2023-04-24T19:56:56.989Z,1.30
2023-04-24T19:59:24.816Z,1.40
2023-04-24T20:01:53.851Z,1.50
2023-04-24T20:04:23.274Z,1.50
2023-04-24T20:06:52.662Z,1.60
2023-04-24T20:09:20.379Z,1.50
2023-04-24T20:11:51.028Z,1.43
2023-04-24T20:14:18.852Z,1.53
2023-04-24T20:16:46.661Z,1.60
2023-04-24T20:19:14.382Z,1.30
2023-04-24T20:21:42.106Z,1.17
2023-04-24T20:24:11.221Z,1.50
2023-04-24T20:26:39.127Z,1.73
2023-04-24T20:29:08.623Z,1.50
2023-04-24T20:31:37.009Z,1.37
2023-04-24T20:34:06.170Z,1.30
2023-04-24T20:36:34.620Z,1.10
2023-04-24T20:39:04.201Z,1.27
2023-04-24T20:41:34.046Z,1.57
2023-04-24T20:44:02.139Z,1.13
2023-04-24T20:46:30.075Z,0.90
2023-04-24T20:48:57.960Z,1.30
2023-04-24T20:51:26.205Z,0.90
2023-04-24T20:53:53.924Z,1.20
2023-04-24T20:56:22.093Z,1.03
2023-04-24T20:58:52.057Z,0.83
2023-04-24T21:01:21.566Z,0.83
2023-04-24T21:03:49.585Z,1.13
2023-04-24T21:06:17.521Z,0.80
2023-04-24T21:08:45.504Z,1.10
2023-04-24T21:11:13.277Z,0.83
2023-04-24T21:13:40.996Z,1.10
2023-04-24T21:16:10.359Z,0.70
2023-04-24T21:18:41.122Z,1.10
2023-04-24T21:21:09.669Z,0.70
2023-04-24T21:23:37.632Z,0.63
2023-04-24T21:26:05.830Z,0.90
2023-04-24T21:28:34.061Z,0.83
2023-04-24T21:31:02.131Z,1.23
2023-04-24T21:33:31.175Z,0.90
2023-04-24T21:35:59.005Z,0.80
2023-04-24T21:38:26.844Z,1.30
2023-04-24T21:40:54.568Z,1.10
2023-04-24T21:43:28.047Z,0.87
2023-04-24T21:46:05.446Z,0.97
2023-04-24T21:48:34.502Z,1.07
2023-04-24T21:51:02.249Z,1.27
2023-04-24T21:53:30.577Z,1.00
2023-04-24T21:55:58.420Z,0.90
2023-04-24T21:58:26.506Z,0.73
2023-04-24T22:00:54.365Z,1.10
2023-04-24T22:03:22.222Z,0.83
2023-04-24T22:05:51.444Z,0.70
2023-04-24T22:08:19.376Z,1.07
2023-04-24T22:10:47.258Z,1.13
2023-04-24T22:13:15.079Z,1.00
2023-04-24T22:15:42.987Z,1.20
2023-04-24T22:18:11.810Z,0.93
2023-04-24T22:20:39.836Z,1.00
2023-04-24T22:23:09.116Z,0.87
2023-04-24T22:25:36.850Z,1.23
2023-04-24T22:28:04.725Z,1.37
2023-04-24T22:30:32.434Z,0.90
2023-04-24T22:33:00.318Z,0.90
2023-04-24T22:35:28.178Z,1.00
2023-04-24T22:37:56.491Z,1.13
2023-04-24T22:40:26.155Z,1.37
2023-04-24T22:42:54.252Z,1.23
2023-04-24T22:45:23.547Z,1.27
2023-04-24T22:47:51.663Z,1.20
2023-04-24T22:50:20.905Z,0.70
2023-04-24T22:52:48.669Z,1.40
2023-04-24T22:55:16.385Z,0.80
2023-04-24T22:57:45.464Z,0.97
2023-04-24T23:00:14.329Z,1.37
2023-04-24T23:02:42.619Z,0.90
2023-04-24T23:05:11.727Z,1.37
2023-04-24T23:07:39.528Z,1.40
2023-04-24T23:10:08.186Z,1.20
2023-04-24T23:12:36.019Z,1.10
2023-04-24T23:15:06.089Z,1.10
2023-04-24T23:17:33.802Z,1.00
2023-04-24T23:20:01.580Z,0.80
2023-04-24T23:22:30.054Z,1.10
2023-04-24T23:24:57.778Z,1.00
2023-04-24T23:27:25.573Z,0.83
2023-04-24T23:29:53.321Z,1.07
2023-04-24T23:32:22.471Z,1.00
2023-04-24T23:34:50.883Z,1.20
2023-04-24T23:37:19.286Z,0.80
2023-04-24T23:39:47.104Z,1.30
2023-04-24T23:42:14.839Z,1.00
2023-04-24T23:44:42.590Z,1.00
2023-04-24T23:47:10.440Z,1.07
2023-04-24T23:49:39.459Z,0.83
2023-04-24T23:52:07.219Z,1.20
2023-04-24T23:54:35.053Z,1.30
2023-04-24T23:57:03.530Z,1.13
2023-04-24T23:59:31.291Z,0.93
